sensor_id;sensor_type;location;lat;lon;timestamp;temperature;humidity
51793;DHT22;37850;53.178;6.376;2023-12-28T00:01:41;8.80;99.90
51793;DHT22;37850;53.178;6.376;2023-12-28T00:04:08;8.80;99.90
51793;DHT22;37850;53.178;6.376;2023-12-28T00:06:34;8.80;99.90
51793;DHT22;37850;53.178;6.376;2023-12-28T00:09:01;8.80;99.90
51793;DHT22;37850;53.178;6.376;2023-12-28T00:11:27;8.80;99.90
51793;DHT22;37850;53.178;6.376;2023-12-28T00:13:53;8.80;99.90
51793;DHT22;37850;53.178;6.376;2023-12-28T00:16:23;8.80;99.90
51793;DHT22;37850;53.178;6.376;2023-12-28T00:18:49;8.90;99.90
51793;DHT22;37850;53.178;6.376;2023-12-28T00:21:15;8.80;99.90
51793;DHT22;37850;53.178;6.376;2023-12-28T00:23:45;8.90;99.90
51793;DHT22;37850;53.178;6.376;2023-12-28T00:26:11;8.90;99.90
51793;DHT22;37850;53.178;6.376;2023-12-28T00:28:38;8.90;99.90
51793;DHT22;37850;53.178;6.376;2023-12-28T00:31:04;9.10;99.90
51793;DHT22;37850;53.178;6.376;2023-12-28T00:33:30;8.90;99.90
51793;DHT22;37850;53.178;6.376;2023-12-28T00:35:56;8.90;99.90
51793;DHT22;37850;53.178;6.376;2023-12-28T00:38:23;8.90;99.90
51793;DHT22;37850;53.178;6.376;2023-12-28T00:40:49;9.00;99.90
51793;DHT22;37850;53.178;6.376;2023-12-28T00:43:15;8.90;99.90
51793;DHT22;37850;53.178;6.376;2023-12-28T00:45:42;9.00;99.90
51793;DHT22;37850;53.178;6.376;2023-12-28T00:48:09;9.00;99.90
51793;DHT22;37850;53.178;6.376;2023-12-28T00:50:35;9.00;99.90
51793;DHT22;37850;53.178;6.376;2023-12-28T00:53:03;9.00;99.90
51793;DHT22;37850;53.178;6.376;2023-12-28T00:55:30;9.10;99.90
51793;DHT22;37850;53.178;6.376;2023-12-28T00:57:55;9.00;99.90
51793;DHT22;37850;53.178;6.376;2023-12-28T01:00:22;9.00;99.90
51793;DHT22;37850;53.178;6.376;2023-12-28T01:02:49;9.10;99.90
51793;DHT22;37850;53.178;6.376;2023-12-28T01:05:15;9.10;99.90
51793;DHT22;37850;53.178;6.376;2023-12-28T01:07:42;9.10;99.90
51793;DHT22;37850;53.178;6.376;2023-12-28T01:10:09;9.10;99.90
51793;DHT22;37850;53.178;6.376;2023-12-28T01:12:36;9.20;99.90
51793;DHT22;37850;53.178;6.376;2023-12-28T01:15:04;9.10;99.90
51793;DHT22;37850;53.178;6.376;2023-12-28T01:17:31;9.20;99.90
51793;DHT22;37850;53.178;6.376;2023-12-28T01:19:58;9.00;99.90
51793;DHT22;37850;53.178;6.376;2023-12-28T01:22:24;9.20;99.90
51793;DHT22;37850;53.178;6.376;2023-12-28T01:24:53;9.20;99.90
51793;DHT22;37850;53.178;6.376;2023-12-28T01:27:23;9.20;99.90
51793;DHT22;37850;53.178;6.376;2023-12-28T01:29:49;9.50;99.90
51793;DHT22;37850;53.178;6.376;2023-12-28T01:32:15;9.10;99.90
51793;DHT22;37850;53.178;6.376;2023-12-28T01:34:41;9.10;99.90
51793;DHT22;37850;53.178;6.376;2023-12-28T01:37:08;9.10;99.90
51793;DHT22;37850;53.178;6.376;2023-12-28T01:39:33;9.10;99.90
51793;DHT22;37850;53.178;6.376;2023-12-28T01:41:59;9.10;99.90
51793;DHT22;37850;53.178;6.376;2023-12-28T01:44:25;9.10;99.90
51793;DHT22;37850;53.178;6.376;2023-12-28T01:46:51;9.10;99.90
51793;DHT22;37850;53.178;6.376;2023-12-28T01:49:17;9.10;99.90
51793;DHT22;37850;53.178;6.376;2023-12-28T01:51:44;9.10;99.90
51793;DHT22;37850;53.178;6.376;2023-12-28T01:54:11;9.10;99.90
51793;DHT22;37850;53.178;6.376;2023-12-28T01:56:37;9.10;99.90
51793;DHT22;37850;53.178;6.376;2023-12-28T01:59:03;9.10;99.90
51793;DHT22;37850;53.178;6.376;2023-12-28T02:01:29;9.10;99.90
51793;DHT22;37850;53.178;6.376;2023-12-28T02:03:55;9.10;99.90
51793;DHT22;37850;53.178;6.376;2023-12-28T02:06:23;9.00;99.90
51793;DHT22;37850;53.178;6.376;2023-12-28T02:08:49;9.00;99.90
51793;DHT22;37850;53.178;6.376;2023-12-28T02:11:16;9.00;99.90
51793;DHT22;37850;53.178;6.376;2023-12-28T02:13:43;9.10;99.90
51793;DHT22;37850;53.178;6.376;2023-12-28T02:16:31;9.00;99.90
51793;DHT22;37850;53.178;6.376;2023-12-28T02:19:03;9.00;99.90
51793;DHT22;37850;53.178;6.376;2023-12-28T02:21:34;9.00;99.90
51793;DHT22;37850;53.178;6.376;2023-12-28T02:24:00;9.00;99.90
51793;DHT22;37850;53.178;6.376;2023-12-28T02:26:25;9.00;99.90
51793;DHT22;37850;53.178;6.376;2023-12-28T02:28:51;9.00;99.90
51793;DHT22;37850;53.178;6.376;2023-12-28T02:31:30;8.90;99.90
51793;DHT22;37850;53.178;6.376;2023-12-28T02:34:04;9.00;99.90
51793;DHT22;37850;53.178;6.376;2023-12-28T02:36:34;9.00;99.90
51793;DHT22;37850;53.178;6.376;2023-12-28T02:39:02;8.90;99.90
51793;DHT22;37850;53.178;6.376;2023-12-28T02:41:30;8.90;99.90
51793;DHT22;37850;53.178;6.376;2023-12-28T02:43:56;8.90;99.90
51793;DHT22;37850;53.178;6.376;2023-12-28T02:46:22;9.00;99.90
51793;DHT22;37850;53.178;6.376;2023-12-28T02:48:49;9.10;99.90
51793;DHT22;37850;53.178;6.376;2023-12-28T02:51:15;9.00;99.90
51793;DHT22;37850;53.178;6.376;2023-12-28T02:53:41;9.00;99.90
51793;DHT22;37850;53.178;6.376;2023-12-28T02:56:07;9.00;99.90
51793;DHT22;37850;53.178;6.376;2023-12-28T02:58:33;9.00;99.90
51793;DHT22;37850;53.178;6.376;2023-12-28T03:00:59;9.10;99.90
51793;DHT22;37850;53.178;6.376;2023-12-28T03:03:25;9.10;99.90
51793;DHT22;37850;53.178;6.376;2023-12-28T03:05:51;9.10;99.90
51793;DHT22;37850;53.178;6.376;2023-12-28T03:08:16;9.10;99.90
51793;DHT22;37850;53.178;6.376;2023-12-28T03:10:42;9.10;99.90
51793;DHT22;37850;53.178;6.376;2023-12-28T03:13:08;9.10;99.90
51793;DHT22;37850;53.178;6.376;2023-12-28T03:15:34;9.20;99.90
51793;DHT22;37850;53.178;6.376;2023-12-28T03:17:59;9.20;99.90
51793;DHT22;37850;53.178;6.376;2023-12-28T03:20:25;9.20;99.90
51793;DHT22;37850;53.178;6.376;2023-12-28T03:22:51;9.20;99.90
51793;DHT22;37850;53.178;6.376;2023-12-28T03:25:16;9.20;99.90
51793;DHT22;37850;53.178;6.376;2023-12-28T03:27:42;9.30;99.90
51793;DHT22;37850;53.178;6.376;2023-12-28T03:30:08;9.30;99.90
51793;DHT22;37850;53.178;6.376;2023-12-28T03:32:34;9.30;99.90
51793;DHT22;37850;53.178;6.376;2023-12-28T03:35:00;9.30;99.90
51793;DHT22;37850;53.178;6.376;2023-12-28T03:37:25;9.40;99.90
51793;DHT22;37850;53.178;6.376;2023-12-28T03:39:51;9.80;99.90
51793;DHT22;37850;53.178;6.376;2023-12-28T03:42:17;9.40;99.90
51793;DHT22;37850;53.178;6.376;2023-12-28T03:44:42;9.90;99.90
51793;DHT22;37850;53.178;6.376;2023-12-28T03:47:08;9.40;99.90
51793;DHT22;37850;53.178;6.376;2023-12-28T03:49:34;9.40;99.90
51793;DHT22;37850;53.178;6.376;2023-12-28T03:52:00;9.40;99.90
51793;DHT22;37850;53.178;6.376;2023-12-28T03:54:25;9.40;99.90
51793;DHT22;37850;53.178;6.376;2023-12-28T03:56:51;9.40;99.90
51793;DHT22;37850;53.178;6.376;2023-12-28T03:59:16;9.50;99.90
51793;DHT22;37850;53.178;6.376;2023-12-28T04:01:43;9.50;99.90
51793;DHT22;37850;53.178;6.376;2023-12-28T04:04:09;9.50;99.90
51793;DHT22;37850;53.178;6.376;2023-12-28T04:06:36;9.50;99.90
51793;DHT22;37850;53.178;6.376;2023-12-28T04:09:02;9.50;99.90
51793;DHT22;37850;53.178;6.376;2023-12-28T04:11:28;9.50;99.90
51793;DHT22;37850;53.178;6.376;2023-12-28T04:13:53;9.60;99.90
51793;DHT22;37850;53.178;6.376;2023-12-28T04:16:20;9.60;99.90
51793;DHT22;37850;53.178;6.376;2023-12-28T04:18:46;9.50;99.90
51793;DHT22;37850;53.178;6.376;2023-12-28T04:21:13;9.60;99.90
51793;DHT22;37850;53.178;6.376;2023-12-28T04:23:40;9.60;99.90
51793;DHT22;37850;53.178;6.376;2023-12-28T04:26:06;9.60;99.90
51793;DHT22;37850;53.178;6.376;2023-12-28T04:28:32;9.60;99.90
51793;DHT22;37850;53.178;6.376;2023-12-28T04:31:02;9.70;99.90
51793;DHT22;37850;53.178;6.376;2023-12-28T04:33:29;9.60;99.90
51793;DHT22;37850;53.178;6.376;2023-12-28T04:35:54;9.70;99.90
51793;DHT22;37850;53.178;6.376;2023-12-28T04:38:23;10.10;99.90
51793;DHT22;37850;53.178;6.376;2023-12-28T04:40:49;9.70;99.90
51793;DHT22;37850;53.178;6.376;2023-12-28T04:43:14;9.70;99.90
51793;DHT22;37850;53.178;6.376;2023-12-28T04:45:40;9.70;99.90
51793;DHT22;37850;53.178;6.376;2023-12-28T04:48:06;9.70;99.90
51793;DHT22;37850;53.178;6.376;2023-12-28T04:50:32;9.70;99.90
51793;DHT22;37850;53.178;6.376;2023-12-28T04:52:57;9.70;99.90
51793;DHT22;37850;53.178;6.376;2023-12-28T04:55:23;9.80;99.90
51793;DHT22;37850;53.178;6.376;2023-12-28T04:57:50;9.70;99.90
51793;DHT22;37850;53.178;6.376;2023-12-28T05:00:16;9.70;99.90
51793;DHT22;37850;53.178;6.376;2023-12-28T05:02:42;9.70;99.90
51793;DHT22;37850;53.178;6.376;2023-12-28T05:05:07;9.80;99.90
51793;DHT22;37850;53.178;6.376;2023-12-28T05:07:35;9.70;99.90
51793;DHT22;37850;53.178;6.376;2023-12-28T05:10:01;10.10;99.90
51793;DHT22;37850;53.178;6.376;2023-12-28T05:12:27;9.80;99.90
51793;DHT22;37850;53.178;6.376;2023-12-28T05:14:52;9.80;99.90
51793;DHT22;37850;53.178;6.376;2023-12-28T05:17:18;9.90;99.90
51793;DHT22;37850;53.178;6.376;2023-12-28T05:19:44;9.90;99.90
51793;DHT22;37850;53.178;6.376;2023-12-28T05:22:09;9.90;99.90
51793;DHT22;37850;53.178;6.376;2023-12-28T05:24:36;9.90;99.90
51793;DHT22;37850;53.178;6.376;2023-12-28T05:27:02;9.90;99.90
51793;DHT22;37850;53.178;6.376;2023-12-28T05:29:28;9.90;99.90
51793;DHT22;37850;53.178;6.376;2023-12-28T05:31:53;9.90;99.90
51793;DHT22;37850;53.178;6.376;2023-12-28T05:34:19;9.90;99.90
51793;DHT22;37850;53.178;6.376;2023-12-28T05:36:48;9.90;99.90
51793;DHT22;37850;53.178;6.376;2023-12-28T05:39:13;10.00;99.90
51793;DHT22;37850;53.178;6.376;2023-12-28T05:41:39;10.20;99.90
51793;DHT22;37850;53.178;6.376;2023-12-28T05:44:09;10.00;99.90
51793;DHT22;37850;53.178;6.376;2023-12-28T05:46:34;10.00;99.90
51793;DHT22;37850;53.178;6.376;2023-12-28T05:49:00;10.00;99.90
51793;DHT22;37850;53.178;6.376;2023-12-28T05:51:26;10.00;99.90
51793;DHT22;37850;53.178;6.376;2023-12-28T05:53:51;10.00;99.90
51793;DHT22;37850;53.178;6.376;2023-12-28T05:56:17;10.10;99.90
51793;DHT22;37850;53.178;6.376;2023-12-28T05:58:43;10.00;99.90
51793;DHT22;37850;53.178;6.376;2023-12-28T06:01:08;10.00;99.90
51793;DHT22;37850;53.178;6.376;2023-12-28T06:03:34;10.00;99.90
51793;DHT22;37850;53.178;6.376;2023-12-28T06:06:00;10.00;99.90
51793;DHT22;37850;53.178;6.376;2023-12-28T06:08:26;10.00;99.90
51793;DHT22;37850;53.178;6.376;2023-12-28T06:10:51;10.10;99.90
51793;DHT22;37850;53.178;6.376;2023-12-28T06:13:17;10.00;99.90
51793;DHT22;37850;53.178;6.376;2023-12-28T06:15:43;10.00;99.90
51793;DHT22;37850;53.178;6.376;2023-12-28T06:18:09;10.00;99.90
51793;DHT22;37850;53.178;6.376;2023-12-28T06:20:35;10.00;99.90
51793;DHT22;37850;53.178;6.376;2023-12-28T06:23:01;10.00;99.90
51793;DHT22;37850;53.178;6.376;2023-12-28T06:25:28;10.00;99.90
51793;DHT22;37850;53.178;6.376;2023-12-28T06:27:53;10.10;99.90
51793;DHT22;37850;53.178;6.376;2023-12-28T06:30:19;10.10;99.90
51793;DHT22;37850;53.178;6.376;2023-12-28T06:32:45;10.10;99.90
51793;DHT22;37850;53.178;6.376;2023-12-28T06:35:10;10.10;99.90
51793;DHT22;37850;53.178;6.376;2023-12-28T06:37:36;10.00;99.90
51793;DHT22;37850;53.178;6.376;2023-12-28T06:40:02;10.10;99.90
51793;DHT22;37850;53.178;6.376;2023-12-28T06:42:28;10.10;99.90
51793;DHT22;37850;53.178;6.376;2023-12-28T06:44:54;10.20;99.90
51793;DHT22;37850;53.178;6.376;2023-12-28T06:47:19;10.10;99.90
51793;DHT22;37850;53.178;6.376;2023-12-28T06:49:46;10.10;99.90
51793;DHT22;37850;53.178;6.376;2023-12-28T06:52:12;10.10;99.90
51793;DHT22;37850;53.178;6.376;2023-12-28T06:54:37;10.10;99.90
51793;DHT22;37850;53.178;6.376;2023-12-28T06:57:03;10.10;99.90
51793;DHT22;37850;53.178;6.376;2023-12-28T06:59:29;10.20;99.90
51793;DHT22;37850;53.178;6.376;2023-12-28T07:01:55;10.20;99.90
51793;DHT22;37850;53.178;6.376;2023-12-28T07:04:21;10.10;99.90
51793;DHT22;37850;53.178;6.376;2023-12-28T07:06:46;10.20;99.90
51793;DHT22;37850;53.178;6.376;2023-12-28T07:09:12;10.20;99.90
51793;DHT22;37850;53.178;6.376;2023-12-28T07:11:38;10.20;99.90
51793;DHT22;37850;53.178;6.376;2023-12-28T07:14:04;10.20;99.90
51793;DHT22;37850;53.178;6.376;2023-12-28T07:16:29;10.20;99.90
51793;DHT22;37850;53.178;6.376;2023-12-28T07:18:55;10.30;99.90
51793;DHT22;37850;53.178;6.376;2023-12-28T07:21:21;10.30;99.90
51793;DHT22;37850;53.178;6.376;2023-12-28T07:23:47;10.40;99.90
51793;DHT22;37850;53.178;6.376;2023-12-28T07:26:15;10.20;99.90
51793;DHT22;37850;53.178;6.376;2023-12-28T07:28:41;10.20;99.90
51793;DHT22;37850;53.178;6.376;2023-12-28T07:31:09;10.20;99.90
51793;DHT22;37850;53.178;6.376;2023-12-28T07:33:35;10.20;99.90
51793;DHT22;37850;53.178;6.376;2023-12-28T07:36:00;10.20;99.90
51793;DHT22;37850;53.178;6.376;2023-12-28T07:38:28;10.30;99.90
51793;DHT22;37850;53.178;6.376;2023-12-28T07:40:54;10.20;99.90
51793;DHT22;37850;53.178;6.376;2023-12-28T07:43:21;10.20;99.90
51793;DHT22;37850;53.178;6.376;2023-12-28T07:45:46;10.20;99.90
51793;DHT22;37850;53.178;6.376;2023-12-28T07:48:12;10.20;99.90
51793;DHT22;37850;53.178;6.376;2023-12-28T07:50:38;10.20;99.90
51793;DHT22;37850;53.178;6.376;2023-12-28T07:53:04;10.50;99.90
51793;DHT22;37850;53.178;6.376;2023-12-28T07:55:29;10.30;99.90
51793;DHT22;37850;53.178;6.376;2023-12-28T07:57:55;10.30;99.90
51793;DHT22;37850;53.178;6.376;2023-12-28T08:00:21;10.30;99.90
51793;DHT22;37850;53.178;6.376;2023-12-28T08:02:47;10.30;99.90
51793;DHT22;37850;53.178;6.376;2023-12-28T08:05:13;10.30;99.90
51793;DHT22;37850;53.178;6.376;2023-12-28T08:07:38;10.30;99.90
51793;DHT22;37850;53.178;6.376;2023-12-28T08:10:04;10.60;99.90
51793;DHT22;37850;53.178;6.376;2023-12-28T08:12:31;10.30;99.90
51793;DHT22;37850;53.178;6.376;2023-12-28T08:14:56;10.30;99.90
51793;DHT22;37850;53.178;6.376;2023-12-28T08:17:22;10.40;99.90
51793;DHT22;37850;53.178;6.376;2023-12-28T08:19:48;10.40;99.90
51793;DHT22;37850;53.178;6.376;2023-12-28T08:22:14;10.40;99.90
51793;DHT22;37850;53.178;6.376;2023-12-28T08:24:39;10.40;99.90
51793;DHT22;37850;53.178;6.376;2023-12-28T08:27:05;10.40;99.90
51793;DHT22;37850;53.178;6.376;2023-12-28T08:29:31;10.40;99.90
51793;DHT22;37850;53.178;6.376;2023-12-28T08:31:56;10.40;99.90
51793;DHT22;37850;53.178;6.376;2023-12-28T08:34:22;10.50;99.90
51793;DHT22;37850;53.178;6.376;2023-12-28T08:36:48;10.50;99.90
51793;DHT22;37850;53.178;6.376;2023-12-28T08:39:13;10.50;99.90
51793;DHT22;37850;53.178;6.376;2023-12-28T08:41:39;10.50;99.90
51793;DHT22;37850;53.178;6.376;2023-12-28T08:44:05;10.40;99.90
51793;DHT22;37850;53.178;6.376;2023-12-28T08:46:30;10.50;99.90
51793;DHT22;37850;53.178;6.376;2023-12-28T08:48:56;10.50;99.90
51793;DHT22;37850;53.178;6.376;2023-12-28T08:51:22;10.50;99.90
51793;DHT22;37850;53.178;6.376;2023-12-28T08:53:48;10.50;99.90
51793;DHT22;37850;53.178;6.376;2023-12-28T08:56:16;10.50;99.90
51793;DHT22;37850;53.178;6.376;2023-12-28T08:58:42;10.50;99.90
51793;DHT22;37850;53.178;6.376;2023-12-28T09:01:08;10.50;99.90
51793;DHT22;37850;53.178;6.376;2023-12-28T09:03:34;10.50;99.90
51793;DHT22;37850;53.178;6.376;2023-12-28T09:06:00;10.50;99.90
51793;DHT22;37850;53.178;6.376;2023-12-28T09:08:26;10.60;99.90
51793;DHT22;37850;53.178;6.376;2023-12-28T09:10:51;10.50;99.90
51793;DHT22;37850;53.178;6.376;2023-12-28T09:13:18;10.60;99.90
51793;DHT22;37850;53.178;6.376;2023-12-28T09:15:44;10.60;99.90
51793;DHT22;37850;53.178;6.376;2023-12-28T09:18:09;10.60;99.90
51793;DHT22;37850;53.178;6.376;2023-12-28T09:20:35;10.60;99.90
51793;DHT22;37850;53.178;6.376;2023-12-28T09:23:01;10.60;99.90
51793;DHT22;37850;53.178;6.376;2023-12-28T09:25:27;10.60;99.90
51793;DHT22;37850;53.178;6.376;2023-12-28T09:27:53;10.60;99.90
51793;DHT22;37850;53.178;6.376;2023-12-28T09:30:19;10.60;99.90
51793;DHT22;37850;53.178;6.376;2023-12-28T09:32:45;10.60;99.90
51793;DHT22;37850;53.178;6.376;2023-12-28T09:35:11;10.60;99.90
51793;DHT22;37850;53.178;6.376;2023-12-28T09:37:36;10.60;99.90
51793;DHT22;37850;53.178;6.376;2023-12-28T09:40:03;10.60;99.90
51793;DHT22;37850;53.178;6.376;2023-12-28T09:42:35;10.60;99.90
51793;DHT22;37850;53.178;6.376;2023-12-28T09:45:04;11.00;99.90
51793;DHT22;37850;53.178;6.376;2023-12-28T09:47:32;10.70;99.90
51793;DHT22;37850;53.178;6.376;2023-12-28T09:49:58;10.60;99.90
51793;DHT22;37850;53.178;6.376;2023-12-28T09:52:24;10.60;99.90
51793;DHT22;37850;53.178;6.376;2023-12-28T09:54:53;10.60;99.90
51793;DHT22;37850;53.178;6.376;2023-12-28T09:57:19;10.60;99.90
51793;DHT22;37850;53.178;6.376;2023-12-28T09:59:49;10.60;99.90
51793;DHT22;37850;53.178;6.376;2023-12-28T10:02:16;10.60;99.90
51793;DHT22;37850;53.178;6.376;2023-12-28T10:04:42;10.60;99.90
51793;DHT22;37850;53.178;6.376;2023-12-28T10:07:08;10.90;99.90
51793;DHT22;37850;53.178;6.376;2023-12-28T10:09:33;10.60;99.90
51793;DHT22;37850;53.178;6.376;2023-12-28T10:12:00;10.60;99.90
51793;DHT22;37850;53.178;6.376;2023-12-28T10:14:26;10.60;99.90
51793;DHT22;37850;53.178;6.376;2023-12-28T10:16:52;10.70;99.90
51793;DHT22;37850;53.178;6.376;2023-12-28T10:19:21;10.70;99.90
51793;DHT22;37850;53.178;6.376;2023-12-28T10:21:48;10.70;99.90
51793;DHT22;37850;53.178;6.376;2023-12-28T10:24:14;10.70;99.90
51793;DHT22;37850;53.178;6.376;2023-12-28T10:26:39;10.70;99.90
51793;DHT22;37850;53.178;6.376;2023-12-28T10:29:05;10.70;99.90
51793;DHT22;37850;53.178;6.376;2023-12-28T10:31:31;10.60;99.90
51793;DHT22;37850;53.178;6.376;2023-12-28T10:34:00;10.70;99.90
51793;DHT22;37850;53.178;6.376;2023-12-28T10:36:27;10.70;99.90
51793;DHT22;37850;53.178;6.376;2023-12-28T10:38:54;10.70;99.90
51793;DHT22;37850;53.178;6.376;2023-12-28T10:41:20;10.70;99.90
51793;DHT22;37850;53.178;6.376;2023-12-28T10:44:03;10.70;99.90
51793;DHT22;37850;53.178;6.376;2023-12-28T10:46:31;10.70;99.90
51793;DHT22;37850;53.178;6.376;2023-12-28T10:49:11;10.70;99.90
51793;DHT22;37850;53.178;6.376;2023-12-28T10:51:41;10.70;99.90
51793;DHT22;37850;53.178;6.376;2023-12-28T10:54:37;10.70;99.90
51793;DHT22;37850;53.178;6.376;2023-12-28T10:57:09;10.70;99.90
51793;DHT22;37850;53.178;6.376;2023-12-28T11:02:15;10.70;99.90
51793;DHT22;37850;53.178;6.376;2023-12-28T11:04:48;10.70;99.90
51793;DHT22;37850;53.178;6.376;2023-12-28T11:07:17;10.70;99.90
51793;DHT22;37850;53.178;6.376;2023-12-28T11:09:43;10.70;99.90
51793;DHT22;37850;53.178;6.376;2023-12-28T11:12:09;10.70;99.90
51793;DHT22;37850;53.178;6.376;2023-12-28T11:14:38;10.70;99.90
51793;DHT22;37850;53.178;6.376;2023-12-28T11:17:04;10.70;99.90
51793;DHT22;37850;53.178;6.376;2023-12-28T11:19:31;10.70;99.90
51793;DHT22;37850;53.178;6.376;2023-12-28T11:21:58;10.70;99.90
51793;DHT22;37850;53.178;6.376;2023-12-28T11:24:27;10.70;99.90
51793;DHT22;37850;53.178;6.376;2023-12-28T11:26:54;10.70;99.90
51793;DHT22;37850;53.178;6.376;2023-12-28T11:29:23;10.70;99.90
51793;DHT22;37850;53.178;6.376;2023-12-28T11:31:52;10.70;99.90
51793;DHT22;37850;53.178;6.376;2023-12-28T11:34:18;10.70;99.90
51793;DHT22;37850;53.178;6.376;2023-12-28T11:36:48;10.70;99.90
51793;DHT22;37850;53.178;6.376;2023-12-28T11:39:39;10.70;99.90
51793;DHT22;37850;53.178;6.376;2023-12-28T11:42:06;10.70;99.90
51793;DHT22;37850;53.178;6.376;2023-12-28T11:44:40;10.70;99.90
51793;DHT22;37850;53.178;6.376;2023-12-28T11:47:14;10.70;99.90
51793;DHT22;37850;53.178;6.376;2023-12-28T11:49:40;10.70;99.90
51793;DHT22;37850;53.178;6.376;2023-12-28T11:52:07;10.70;99.90
51793;DHT22;37850;53.178;6.376;2023-12-28T11:54:33;10.70;99.90
51793;DHT22;37850;53.178;6.376;2023-12-28T11:56:59;10.60;99.90
51793;DHT22;37850;53.178;6.376;2023-12-28T11:59:24;10.90;99.90
51793;DHT22;37850;53.178;6.376;2023-12-28T12:01:54;10.70;99.90
51793;DHT22;37850;53.178;6.376;2023-12-28T12:04:20;10.70;99.90
51793;DHT22;37850;53.178;6.376;2023-12-28T12:06:47;10.60;99.90
51793;DHT22;37850;53.178;6.376;2023-12-28T12:09:16;10.60;99.90
51793;DHT22;37850;53.178;6.376;2023-12-28T12:11:43;10.60;99.90
51793;DHT22;37850;53.178;6.376;2023-12-28T12:14:10;10.60;99.90
51793;DHT22;37850;53.178;6.376;2023-12-28T12:16:37;10.60;99.90
51793;DHT22;37850;53.178;6.376;2023-12-28T12:19:06;10.60;99.90
51793;DHT22;37850;53.178;6.376;2023-12-28T12:21:33;10.60;99.90
51793;DHT22;37850;53.178;6.376;2023-12-28T12:23:59;10.60;99.90
51793;DHT22;37850;53.178;6.376;2023-12-28T12:26:26;10.60;99.90
51793;DHT22;37850;53.178;6.376;2023-12-28T12:28:52;10.60;99.90
51793;DHT22;37850;53.178;6.376;2023-12-28T12:31:18;10.60;99.90
51793;DHT22;37850;53.178;6.376;2023-12-28T12:33:45;10.60;99.90
51793;DHT22;37850;53.178;6.376;2023-12-28T12:36:10;10.60;99.90
51793;DHT22;37850;53.178;6.376;2023-12-28T12:38:36;10.60;99.90
51793;DHT22;37850;53.178;6.376;2023-12-28T12:41:02;10.60;99.90
51793;DHT22;37850;53.178;6.376;2023-12-28T12:43:28;10.60;99.90
51793;DHT22;37850;53.178;6.376;2023-12-28T12:45:54;10.60;99.90
51793;DHT22;37850;53.178;6.376;2023-12-28T12:48:23;10.60;99.90
51793;DHT22;37850;53.178;6.376;2023-12-28T12:50:49;10.60;99.90
51793;DHT22;37850;53.178;6.376;2023-12-28T12:53:15;10.60;99.90
51793;DHT22;37850;53.178;6.376;2023-12-28T12:55:41;10.60;99.90
51793;DHT22;37850;53.178;6.376;2023-12-28T12:58:11;10.60;99.90
51793;DHT22;37850;53.178;6.376;2023-12-28T13:00:39;10.60;99.90
51793;DHT22;37850;53.178;6.376;2023-12-28T13:03:08;10.60;99.90
51793;DHT22;37850;53.178;6.376;2023-12-28T13:05:38;10.70;99.90
51793;DHT22;37850;53.178;6.376;2023-12-28T13:08:04;10.60;99.90
51793;DHT22;37850;53.178;6.376;2023-12-28T13:10:33;10.70;99.90
51793;DHT22;37850;53.178;6.376;2023-12-28T13:12:59;10.60;99.90
51793;DHT22;37850;53.178;6.376;2023-12-28T13:15:26;10.70;99.90
51793;DHT22;37850;53.178;6.376;2023-12-28T13:17:52;10.70;99.90
51793;DHT22;37850;53.178;6.376;2023-12-28T13:20:18;10.70;99.90
51793;DHT22;37850;53.178;6.376;2023-12-28T13:22:44;10.70;99.90
51793;DHT22;37850;53.178;6.376;2023-12-28T13:25:10;10.60;99.90
51793;DHT22;37850;53.178;6.376;2023-12-28T13:27:36;10.60;99.90
51793;DHT22;37850;53.178;6.376;2023-12-28T13:30:02;10.60;99.90
51793;DHT22;37850;53.178;6.376;2023-12-28T13:32:27;10.70;99.90
51793;DHT22;37850;53.178;6.376;2023-12-28T13:34:53;10.70;99.90
51793;DHT22;37850;53.178;6.376;2023-12-28T13:37:19;10.60;99.90
51793;DHT22;37850;53.178;6.376;2023-12-28T13:39:44;10.70;99.90
51793;DHT22;37850;53.178;6.376;2023-12-28T13:42:12;10.90;99.90
51793;DHT22;37850;53.178;6.376;2023-12-28T13:44:38;10.60;99.90
51793;DHT22;37850;53.178;6.376;2023-12-28T13:47:04;10.60;99.90
51793;DHT22;37850;53.178;6.376;2023-12-28T13:49:31;10.60;99.90
51793;DHT22;37850;53.178;6.376;2023-12-28T13:51:57;10.60;99.90
51793;DHT22;37850;53.178;6.376;2023-12-28T13:54:23;10.60;99.90
51793;DHT22;37850;53.178;6.376;2023-12-28T13:56:49;10.60;99.90
51793;DHT22;37850;53.178;6.376;2023-12-28T13:59:15;10.60;99.90
51793;DHT22;37850;53.178;6.376;2023-12-28T14:01:40;10.60;99.90
51793;DHT22;37850;53.178;6.376;2023-12-28T14:04:06;10.60;99.90
51793;DHT22;37850;53.178;6.376;2023-12-28T14:06:32;10.60;99.90
51793;DHT22;37850;53.178;6.376;2023-12-28T14:08:58;10.60;99.90
51793;DHT22;37850;53.178;6.376;2023-12-28T14:11:24;10.60;99.90
51793;DHT22;37850;53.178;6.376;2023-12-28T14:13:53;10.60;99.90
51793;DHT22;37850;53.178;6.376;2023-12-28T14:16:18;10.60;99.90
51793;DHT22;37850;53.178;6.376;2023-12-28T14:18:44;10.50;99.90
51793;DHT22;37850;53.178;6.376;2023-12-28T14:21:10;10.50;99.90
51793;DHT22;37850;53.178;6.376;2023-12-28T14:23:38;10.50;99.90
51793;DHT22;37850;53.178;6.376;2023-12-28T14:26:13;10.50;99.90
51793;DHT22;37850;53.178;6.376;2023-12-28T14:28:42;10.50;99.90
51793;DHT22;37850;53.178;6.376;2023-12-28T14:31:10;10.40;99.90
51793;DHT22;37850;53.178;6.376;2023-12-28T14:33:36;10.40;99.90
51793;DHT22;37850;53.178;6.376;2023-12-28T14:36:02;10.40;99.90
51793;DHT22;37850;53.178;6.376;2023-12-28T14:38:29;10.30;99.90
51793;DHT22;37850;53.178;6.376;2023-12-28T14:40:55;10.30;99.90
51793;DHT22;37850;53.178;6.376;2023-12-28T14:43:21;10.20;99.90
51793;DHT22;37850;53.178;6.376;2023-12-28T14:45:47;10.20;99.90
51793;DHT22;37850;53.178;6.376;2023-12-28T14:48:13;10.20;99.90
51793;DHT22;37850;53.178;6.376;2023-12-28T14:50:39;10.10;99.90
51793;DHT22;37850;53.178;6.376;2023-12-28T14:53:04;10.10;99.90
51793;DHT22;37850;53.178;6.376;2023-12-28T14:55:30;10.10;99.90
51793;DHT22;37850;53.178;6.376;2023-12-28T14:57:56;10.10;99.90
51793;DHT22;37850;53.178;6.376;2023-12-28T15:00:22;10.10;99.90
51793;DHT22;37850;53.178;6.376;2023-12-28T15:02:48;10.00;99.90
51793;DHT22;37850;53.178;6.376;2023-12-28T15:05:13;10.00;99.90
51793;DHT22;37850;53.178;6.376;2023-12-28T15:07:39;10.00;99.90
51793;DHT22;37850;53.178;6.376;2023-12-28T15:10:05;10.00;99.90
51793;DHT22;37850;53.178;6.376;2023-12-28T15:12:34;10.00;99.90
51793;DHT22;37850;53.178;6.376;2023-12-28T15:15:00;9.90;99.90
51793;DHT22;37850;53.178;6.376;2023-12-28T15:17:26;9.90;99.90
51793;DHT22;37850;53.178;6.376;2023-12-28T15:19:52;9.90;99.90
51793;DHT22;37850;53.178;6.376;2023-12-28T15:22:18;9.90;99.90
51793;DHT22;37850;53.178;6.376;2023-12-28T15:24:44;9.90;99.90
51793;DHT22;37850;53.178;6.376;2023-12-28T15:27:10;9.90;99.90
51793;DHT22;37850;53.178;6.376;2023-12-28T15:29:37;9.90;99.90
51793;DHT22;37850;53.178;6.376;2023-12-28T15:32:04;9.90;99.90
51793;DHT22;37850;53.178;6.376;2023-12-28T15:34:30;9.90;99.90
51793;DHT22;37850;53.178;6.376;2023-12-28T15:36:56;9.90;99.90